Relevés horaires Les Attelas (Suisse)


Relevés horaires à Les Attelas - Jeudi 13 Août 2026
Heure UTC1 Température [°C] Vent [km/h] Hum. [%] Pres.4 [hPa] Visi. [Km] Nébu. [octa] Préc.5 [mm] Cond.
2m. Res. Ros. Dir.2 Vit. Moy. Raf.3
23:00 12.6 12.6 6.2 N 1.9 -- 5.6 65 700(-0.5/3h) -- -- -- --
22:00 13.0 13.0 6.2 SE 0.0 -- 7.4 63 700(-0.2/3h) -- -- -- --
21:00 12.8 12.8 6.3 S 5.6 -- 11.1 65 700(0.1/3h) -- -- -- --
20:00 13.0 13 6.4 SSO 5.6 -- 7.4 64 700(-0.1/3h) -- -- -- --
19:00 13.1 13.1 6.5 S 5.6 -- 9.3 64 700(0.0/3h) -- -- -- --
18:00 13.6 13.6 6.8 SO 5.6 -- 31.5 63 700(-0.3/3h) -- -- -- --
17:00 15.6 15.6 8.2 SO 7.4 -- 27.8 61 700(-0.3/3h) -- -- -- --
16:00 16.1 15.8 7.7 SSO 11.1 -- 29.6 57 700(-0.5/3h) -- -- -- --
15:00 16.9 16.9 8.1 OSO 9.3 -- 31.5 56 700(-0.3/3h) -- -- -- --
14:00 16.7 16.7 7.4 SO 9.3 -- 24.1 54 700(-0.2/3h) -- -- -- --
13:00 17.5 17.5 8.2 E 3.7 -- 13.0 54 700(0.1/3h) -- -- -- --
12:00 13.8 13.8 7.6 NNE 5.6 -- 14.8 66 700(0.3/3h) -- -- -- --
11:00 13.8 13.6 8.2 NNE 7.4 -- 11.1 69 700(0.3/3h) -- -- -- --
10:00 13.4 13.4 8.0 NNE 5.6 -- 14.8 70 700(0.3/3h) -- -- -- --
09:00 17.0 17.0 8.1 ESE 1.9 -- 11.1 56 700(0.1/3h) -- -- -- --
08:00 13.2 13.2 7.2 S 3.7 -- 9.3 67 700(0.2/3h) -- -- -- --
07:00 13.1 13.1 7.0 E 1.9 -- 3.7 66 700(0.1/3h) -- -- -- --
06:00 12.2 12.2 6.3 SO 1.9 -- 16.7 67 700(0.1/3h) -- -- -- --
05:00 12.1 12.1 5.7 SSO 3.7 -- 7.4 65 700(0.0/3h) -- -- -- --
04:00 12.1 11.6 5.5 SSO 7.4 -- 9.3 64 700(-0.1/3h) -- -- -- --
03:00 12.1 11.6 5.6 S 7.4 -- 16.7 64 700(-0.4/3h) -- -- -- --
02:00 12.0 11.5 6.5 SSO 7.4 -- 9.3 69 700(-0.4/3h) -- -- -- --
01:00 12.2 11.7 6.6 SSO 7.4 -- 16.7 69 700(-0.3/3h) -- -- -- --
00:00 12.0 11.5 7.1 S 7.4 -- 20.4 72 700(0.0/3h) -- -- -- --

1 Coordinated Universal Time. Actuellement il est 09:00 locale et 07:00 UTC.

2 Le vent souffle depuis la direction indiquée vers la direction oposée.

3 Les rafales max. sont disponible 40 min après l'heure du relevé.

4 Pour les stations d'altitude (plus de 600m) le géopotentiel du niveau le plus proche de la pression obligatoire est indiqué.

5 Les stations disposant d'un diffuseur peuvent indiquer "trace". Cela signifie que des précipitations ont touchés le sol mais que la quantité est inférieure à 0.1 mm.

Copyright

Les données affichées sur cette page sont la propriété exclusive de Météo Suisse.

Récapitulatif de la journée
Température [°C] Vent [km/h] Ensoleillement4 [h] Precipitations totale5 [mm] Pression [Hpa]
Min1 Max.2 Moy.3 Max. Min Max.
11.9 17.5 0 31.5 7 h 18 min 0 700.0 700.0

1 Température minimale relevée entre 18:00 UTC la veille et 18:00 UTC le jour donné.

2 Température maximale relevée entre 06:00 UTC le jour donné et 06:00 UTC le lendemain.

3 Vent moyen de la journée basé sur les relevés horaires.

4 Ensoleillement en heures relevé entre 06:00 UTC la veille et 06:00 UTC le jour donné.

5 Précipitations totales tombées entre 06:00 UTC la jour donné et 06:00 UTC le lendemain.

Graphiques horaires